Time;durP1;ratioP1;P1;durP2;ratioP2;P2;SDS_P1;SDS_P2;PMS_P1;PMS_P2;Temp;Humidity;BMP_temperature;BMP_pressure;BME280_temperature;BME280_humidity;BME280_pressure;Samples;Min_cycle;Max_cycle;Signal;HPM_P1;HPM_P2
2022/01/05 00:01:35;;;;;;;16.80;1.63;;;3.30;99.90;;;;;;5032905;28;20177;-61
2022/01/05 00:04:01;;;;;;;20.70;2.13;;;3.30;99.90;;;;;;5032517;28;20519;-61
2022/01/05 00:06:27;;;;;;;13.53;2.00;;;3.30;99.90;;;;;;5033046;28;20208;-62
2022/01/05 00:08:53;;;;;;;8.77;1.43;;;3.30;99.90;;;;;;5031434;28;20532;-62
2022/01/05 00:11:18;;;;;;;10.10;1.90;;;3.30;99.90;;;;;;5032697;28;20888;-62
2022/01/05 00:13:44;;;;;;;9.30;1.70;;;3.40;99.90;;;;;;5032481;28;20667;-62
2022/01/05 00:16:10;;;;;;;22.90;2.40;;;3.40;99.90;;;;;;5032663;28;20699;-62
2022/01/05 00:18:36;;;;;;;11.57;2.17;;;3.30;99.90;;;;;;5032745;28;20177;-62
2022/01/05 00:21:03;;;;;;;12.13;1.70;;;3.30;99.90;;;;;;5032262;28;20170;-62
2022/01/05 00:23:29;;;;;;;14.97;2.00;;;3.30;99.90;;;;;;5032200;28;20166;-61
2022/01/05 00:25:55;;;;;;;14.60;2.40;;;3.30;99.90;;;;;;5032480;28;20670;-62
2022/01/05 00:28:20;;;;;;;9.23;1.70;;;3.30;99.90;;;;;;5032296;28;20546;-62
2022/01/05 00:30:46;;;;;;;11.93;1.80;;;3.20;99.90;;;;;;5032055;28;20225;-63
2022/01/05 00:33:14;;;;;;;20.90;2.70;;;3.20;99.90;;;;;;5014214;28;20691;-63
2022/01/05 00:38:20;;;;;;;16.67;2.23;;;3.10;99.90;;;;;;5105649;27;1354375;-62
2022/01/05 00:40:46;;;;;;;13.30;2.23;;;3.10;99.90;;;;;;5129373;27;20163;-62
2022/01/05 00:43:11;;;;;;;12.10;2.00;;;3.20;99.90;;;;;;5128181;28;20634;-62
2022/01/05 00:45:37;;;;;;;11.10;1.83;;;3.20;99.90;;;;;;5108963;28;20698;-61
2022/01/05 00:48:03;;;;;;;16.57;2.27;;;3.20;99.90;;;;;;5108709;28;20664;-63
2022/01/05 00:50:29;;;;;;;10.87;1.97;;;3.10;99.90;;;;;;5108634;28;20179;-63
2022/01/05 00:53:00;;;;;;;14.67;1.87;;;3.10;99.90;;;;;;5107228;28;20171;-63
2022/01/05 00:55:27;;;;;;;14.37;2.13;;;3.00;99.90;;;;;;5108542;28;20182;-62
2022/01/05 00:57:53;;;;;;;16.07;1.90;;;3.10;99.90;;;;;;5108418;28;20211;-62
2022/01/05 01:00:19;;;;;;;13.70;2.00;;;3.10;99.90;;;;;;5107085;28;20171;-62
2022/01/05 01:03:19;;;;;;;12.00;2.57;;;3.20;99.90;;;;;;5108132;28;20626;-62
2022/01/05 01:05:44;;;;;;;13.80;2.40;;;3.20;99.90;;;;;;5127866;28;20182;-62
2022/01/05 01:08:10;;;;;;;11.27;2.10;;;3.20;99.90;;;;;;5128842;27;20170;-62
2022/01/05 01:10:36;;;;;;;14.60;2.43;;;3.30;99.90;;;;;;5126525;27;20240;-62
2022/01/05 01:13:02;;;;;;;16.00;2.43;;;3.30;99.90;;;;;;5108526;28;20229;-62
2022/01/05 01:15:28;;;;;;;21.97;2.30;;;3.40;99.90;;;;;;5108275;28;20178;-63
2022/01/05 01:17:54;;;;;;;12.10;1.83;;;3.40;99.90;;;;;;5108191;28;20207;-62
2022/01/05 01:20:20;;;;;;;14.73;2.57;;;3.40;99.90;;;;;;5108027;28;20171;-62
2022/01/05 01:22:48;;;;;;;12.90;1.93;;;3.40;99.90;;;;;;5110364;28;20182;-62
2022/01/05 01:25:14;;;;;;;15.97;1.70;;;3.30;99.90;;;;;;5128537;27;20705;-62
2022/01/05 01:27:43;;;;;;;18.40;2.33;;;3.40;99.90;;;;;;5109368;27;20196;-61
2022/01/05 01:30:10;;;;;;;14.50;1.57;;;3.40;99.90;;;;;;5108027;28;20176;-62
2022/01/05 01:32:36;;;;;;;7.67;1.63;;;3.50;99.90;;;;;;5107890;28;20172;-62
2022/01/05 01:35:04;;;;;;;14.67;1.87;;;3.60;99.90;;;;;;5107854;28;20187;-63
2022/01/05 01:37:30;;;;;;;14.07;2.50;;;3.60;99.90;;;;;;5111126;28;20215;-63
2022/01/05 01:39:56;;;;;;;17.70;1.80;;;3.60;99.90;;;;;;5107858;28;20626;-64
2022/01/05 01:42:22;;;;;;;17.87;2.80;;;3.70;99.90;;;;;;5107909;28;20171;-63
2022/01/05 01:44:47;;;;;;;10.70;1.93;;;3.70;99.90;;;;;;5107725;28;20182;-63
2022/01/05 01:47:14;;;;;;;20.10;1.93;;;3.80;99.90;;;;;;5122050;28;20190;-64
2022/01/05 01:49:40;;;;;;;13.17;2.10;;;3.80;99.90;;;;;;5114722;27;20312;-64
2022/01/05 01:52:06;;;;;;;15.33;2.13;;;3.80;99.90;;;;;;5113002;28;20203;-63
2022/01/05 01:54:35;;;;;;;13.23;2.23;;;3.80;99.90;;;;;;5114584;28;20256;-63
2022/01/05 01:57:01;;;;;;;11.93;2.03;;;3.80;99.90;;;;;;5100895;28;20313;-63
2022/01/05 01:59:28;;;;;;;16.13;2.20;;;3.80;99.90;;;;;;5093827;28;20334;-65
2022/01/05 02:01:55;;;;;;;16.63;2.40;;;3.80;99.90;;;;;;5093838;28;20571;-65
2022/01/05 02:04:21;;;;;;;16.03;2.10;;;3.80;99.90;;;;;;5092419;28;20538;-63
2022/01/05 02:06:47;;;;;;;12.37;1.83;;;3.80;99.90;;;;;;5104017;28;20630;-63
2022/01/05 02:09:13;;;;;;;9.70;2.07;;;3.80;99.90;;;;;;5098987;27;20175;-62
2022/01/05 02:11:39;;;;;;;14.00;1.83;;;3.90;99.90;;;;;;5093553;28;20708;-62
2022/01/05 02:14:05;;;;;;;18.50;2.50;;;3.90;99.90;;;;;;5093537;28;20209;-62
2022/01/05 02:16:33;;;;;;;14.10;2.30;;;3.90;99.90;;;;;;5093224;28;20203;-62
2022/01/05 02:18:59;;;;;;;11.93;2.10;;;4.00;99.90;;;;;;5093300;28;20164;-62
2022/01/05 02:21:34;;;;;;;17.60;2.37;;;4.10;99.90;;;;;;5093399;28;20172;-62
2022/01/05 02:24:01;;;;;;;15.97;2.13;;;4.10;99.90;;;;;;5093136;28;20630;-62
2022/01/05 02:26:27;;;;;;;12.73;2.07;;;4.10;99.90;;;;;;5098222;28;20254;-62
2022/01/05 02:28:53;;;;;;;12.70;1.97;;;4.10;99.90;;;;;;5104286;28;20172;-62
2022/01/05 02:31:20;;;;;;;17.47;2.10;;;4.10;99.90;;;;;;5100753;28;20258;-63
2022/01/05 02:33:45;;;;;;;13.53;2.00;;;4.00;99.90;;;;;;5107641;28;20182;-63
2022/01/05 02:36:15;;;;;;;12.73;2.17;;;4.00;99.90;;;;;;5092844;28;20172;-63
2022/01/05 02:38:41;;;;;;;14.80;1.87;;;3.90;99.90;;;;;;5093128;28;20258;-63
2022/01/05 02:41:09;;;;;;;14.23;2.20;;;3.80;99.90;;;;;;5106337;28;20241;-63
2022/01/05 02:43:36;;;;;;;11.70;1.73;;;3.80;99.90;;;;;;5093132;28;20176;-63
2022/01/05 02:46:03;;;;;;;17.23;2.17;;;3.80;99.90;;;;;;5092915;28;20256;-63
2022/01/05 02:48:30;;;;;;;18.20;2.43;;;3.70;99.90;;;;;;5093133;28;20176;-63
2022/01/05 02:50:57;;;;;;;24.83;2.37;;;3.70;99.90;;;;;;5091473;28;20176;-63
2022/01/05 02:53:23;;;;;;;16.60;2.30;;;3.70;99.90;;;;;;5112441;28;20174;-63
2022/01/05 02:55:50;;;;;;;16.43;2.23;;;3.70;99.90;;;;;;5113185;28;20235;-63
2022/01/05 02:58:16;;;;;;;14.50;2.47;;;3.70;99.90;;;;;;5113066;27;20215;-62
2022/01/05 03:00:42;;;;;;;16.23;1.80;;;3.70;99.90;;;;;;5110332;28;20706;-63
2022/01/05 03:03:08;;;;;;;12.20;2.20;;;3.70;99.90;;;;;;5092713;28;20180;-62
2022/01/05 03:05:34;;;;;;;23.80;2.63;;;3.70;99.90;;;;;;5092566;28;20168;-62
2022/01/05 03:07:59;;;;;;;9.20;1.60;;;3.70;99.90;;;;;;5092693;28;20171;-63
2022/01/05 03:10:25;;;;;;;13.90;2.30;;;3.70;99.90;;;;;;5092330;28;20658;-63
2022/01/05 03:12:51;;;;;;;18.80;2.70;;;3.70;99.90;;;;;;5091245;28;20231;-62
2022/01/05 03:15:17;;;;;;;14.67;2.00;;;3.60;99.90;;;;;;5092348;28;20175;-62
2022/01/05 03:17:43;;;;;;;5.97;1.37;;;3.70;99.90;;;;;;5092368;28;20211;-62
2022/01/05 03:20:11;;;;;;;15.20;1.73;;;3.70;99.90;;;;;;5092360;28;20183;-64
2022/01/05 03:22:37;;;;;;;11.70;1.80;;;3.70;99.90;;;;;;5092030;28;20790;-62
2022/01/05 03:25:04;;;;;;;9.70;1.40;;;3.60;99.90;;;;;;5092267;28;20182;-61
2022/01/05 03:27:30;;;;;;;15.60;1.83;;;3.70;99.90;;;;;;5105084;28;20171;-62
2022/01/05 03:29:56;;;;;;;15.03;1.97;;;3.70;99.90;;;;;;5092308;28;20199;-61
2022/01/05 03:32:23;;;;;;;10.33;1.93;;;3.60;99.90;;;;;;5092182;28;20178;-62
2022/01/05 03:34:51;;;;;;;11.43;2.00;;;3.60;99.90;;;;;;5092105;28;20576;-62
2022/01/05 03:37:17;;;;;;;12.80;2.13;;;3.60;99.90;;;;;;5091799;28;20263;-61
2022/01/05 03:39:43;;;;;;;6.23;1.57;;;3.70;99.90;;;;;;5091952;28;20201;-62
2022/01/05 03:42:09;;;;;;;10.77;1.37;;;3.80;99.90;;;;;;5091901;28;20176;-62
2022/01/05 03:44:35;;;;;;;9.37;1.53;;;3.80;99.90;;;;;;5091618;28;20178;-62
2022/01/05 03:47:01;;;;;;;9.67;1.70;;;3.90;99.90;;;;;;5100115;28;20203;-61
2022/01/05 03:49:27;;;;;;;6.70;1.50;;;3.90;99.90;;;;;;5112352;28;20205;-61
2022/01/05 03:51:53;;;;;;;8.80;1.53;;;3.80;99.90;;;;;;5112199;28;20521;-61
2022/01/05 03:54:19;;;;;;;12.33;1.70;;;3.80;99.90;;;;;;5112002;28;20178;-62
2022/01/05 03:56:45;;;;;;;13.53;1.80;;;3.90;99.90;;;;;;5103469;28;20214;-62
2022/01/05 03:59:11;;;;;;;9.63;1.77;;;3.90;99.90;;;;;;5091253;28;20631;-62
2022/01/05 04:01:36;;;;;;;10.83;1.40;;;3.80;99.90;;;;;;5091701;28;20259;-62
2022/01/05 04:04:03;;;;;;;17.20;1.87;;;3.80;99.90;;;;;;5091521;28;20191;-62
2022/01/05 04:06:28;;;;;;;13.30;1.63;;;3.70;99.90;;;;;;5091272;28;20172;-62
2022/01/05 04:08:54;;;;;;;16.00;1.47;;;3.70;99.90;;;;;;5091559;28;20176;-62
2022/01/05 04:11:20;;;;;;;6.93;1.20;;;3.70;99.90;;;;;;5091127;28;20176;-62
2022/01/05 04:13:45;;;;;;;11.37;1.77;;;3.60;99.90;;;;;;5091471;28;20264;-62
2022/01/05 04:16:11;;;;;;;11.07;1.70;;;3.60;99.90;;;;;;5093163;28;20348;-62
2022/01/05 04:18:37;;;;;;;10.97;1.47;;;3.60;99.90;;;;;;5111742;28;20258;-63
2022/01/05 04:21:03;;;;;;;14.47;1.90;;;3.60;99.90;;;;;;5092552;28;20227;-64
2022/01/05 04:23:29;;;;;;;9.57;1.97;;;3.60;99.90;;;;;;5091364;28;20542;-62
2022/01/05 04:25:55;;;;;;;13.00;1.87;;;3.50;99.90;;;;;;5091239;28;20173;-63
2022/01/05 04:28:20;;;;;;;14.60;1.97;;;3.50;99.90;;;;;;5104494;28;20180;-63
2022/01/05 04:30:46;;;;;;;8.40;1.70;;;3.50;99.90;;;;;;5091186;28;20209;-63
2022/01/05 04:33:12;;;;;;;12.77;2.07;;;3.60;99.90;;;;;;5089887;28;20172;-63
2022/01/05 04:35:38;;;;;;;17.83;2.40;;;3.50;99.90;;;;;;5091209;28;20589;-62
2022/01/05 04:38:03;;;;;;;11.43;1.97;;;3.50;99.90;;;;;;5093380;28;20227;-63
2022/01/05 04:40:31;;;;;;;16.10;2.13;;;3.50;99.90;;;;;;5091084;28;20530;-63
2022/01/05 04:42:57;;;;;;;12.43;1.87;;;3.50;99.90;;;;;;5091173;28;20172;-62
2022/01/05 04:45:23;;;;;;;11.43;1.80;;;3.40;99.90;;;;;;5090966;28;20207;-62
2022/01/05 04:47:49;;;;;;;12.87;1.40;;;3.30;99.90;;;;;;5089911;28;20222;-62
2022/01/05 04:50:15;;;;;;;14.97;1.90;;;3.30;99.90;;;;;;5091035;28;20755;-62
2022/01/05 04:52:41;;;;;;;18.00;3.20;;;3.20;99.90;;;;;;5090929;28;20208;-63
2022/01/05 04:55:08;;;;;;;14.27;2.60;;;3.20;99.90;;;;;;5096428;28;20217;-63
2022/01/05 04:57:34;;;;;;;19.43;2.27;;;3.20;99.90;;;;;;5109560;28;20214;-62
2022/01/05 05:00:00;;;;;;;22.63;2.53;;;3.10;99.90;;;;;;5111080;28;20228;-62
2022/01/05 05:02:26;;;;;;;12.93;2.40;;;3.10;99.90;;;;;;5110949;28;20179;-61
2022/01/05 05:04:52;;;;;;;12.00;2.10;;;3.10;99.90;;;;;;5107249;28;20172;-61
2022/01/05 05:07:18;;;;;;;15.30;2.23;;;3.20;99.90;;;;;;5090557;28;20227;-61
2022/01/05 05:09:43;;;;;;;13.20;2.40;;;3.20;99.90;;;;;;5090534;28;20657;-61
2022/01/05 05:12:10;;;;;;;13.97;2.10;;;3.30;99.90;;;;;;5090264;28;20179;-62
2022/01/05 05:14:36;;;;;;;16.37;2.20;;;3.30;99.90;;;;;;5110460;28;20168;-62
2022/01/05 05:17:02;;;;;;;14.70;2.30;;;3.40;99.90;;;;;;5110915;28;20229;-62
2022/01/05 05:19:28;;;;;;;13.53;1.80;;;3.50;99.90;;;;;;5110853;28;20167;-62
2022/01/05 05:21:54;;;;;;;12.83;1.67;;;3.50;99.90;;;;;;5110840;28;20198;-62
2022/01/05 05:24:20;;;;;;;9.07;1.63;;;3.50;99.90;;;;;;5095949;28;20237;-62
2022/01/05 05:26:46;;;;;;;14.80;1.70;;;3.50;99.90;;;;;;5111744;28;20194;-62
2022/01/05 05:29:11;;;;;;;11.10;1.87;;;3.50;99.90;;;;;;5100769;28;20221;-60
2022/01/05 05:31:37;;;;;;;12.17;1.87;;;3.50;99.90;;;;;;5094399;28;20287;-61
2022/01/05 05:34:03;;;;;;;16.87;1.60;;;3.50;99.90;;;;;;5093948;28;20171;-60
2022/01/05 05:36:28;;;;;;;14.53;1.80;;;3.50;99.90;;;;;;5093809;28;20666;-63
2022/01/05 05:38:54;;;;;;;13.83;2.10;;;3.40;99.90;;;;;;5093877;28;20248;-61
2022/01/05 05:41:20;;;;;;;11.73;1.60;;;3.40;99.90;;;;;;5094040;28;20164;-61
2022/01/05 05:43:48;;;;;;;14.10;1.97;;;3.40;99.90;;;;;;5092378;28;20207;-62
2022/01/05 05:46:15;;;;;;;11.93;1.80;;;3.40;99.90;;;;;;5093848;28;20615;-60
2022/01/05 05:48:40;;;;;;;20.70;2.03;;;3.40;99.90;;;;;;5093920;28;20168;-61
2022/01/05 05:51:06;;;;;;;14.37;2.30;;;3.40;99.90;;;;;;5093760;28;20179;-61
2022/01/05 05:53:32;;;;;;;11.00;1.73;;;3.40;99.90;;;;;;5093461;28;20638;-61
2022/01/05 05:55:58;;;;;;;15.43;1.80;;;3.40;99.90;;;;;;5093652;28;20168;-61
2022/01/05 05:58:23;;;;;;;8.90;1.90;;;3.50;99.90;;;;;;5093646;28;20215;-62
2022/01/05 06:00:49;;;;;;;8.27;1.47;;;3.40;99.90;;;;;;5093637;28;20535;-62
2022/01/05 06:03:15;;;;;;;15.07;2.10;;;3.40;99.90;;;;;;5108604;28;20175;-63
2022/01/05 06:05:41;;;;;;;15.13;1.80;;;3.40;99.90;;;;;;5113867;28;20179;-63
2022/01/05 06:08:08;;;;;;;14.40;2.27;;;3.40;99.90;;;;;;5113874;28;20183;-63
2022/01/05 06:10:37;;;;;;;12.13;1.60;;;3.40;99.90;;;;;;5113850;27;20175;-61
2022/01/05 06:13:03;;;;;;;11.00;1.57;;;3.40;99.90;;;;;;5110349;28;20227;-62
2022/01/05 06:15:29;;;;;;;13.83;1.90;;;3.40;99.90;;;;;;5093386;28;20200;-61
2022/01/05 06:17:54;;;;;;;17.13;1.63;;;3.40;99.90;;;;;;5093395;28;20230;-62
2022/01/05 06:20:30;;;;;;;15.40;1.90;;;3.50;99.90;;;;;;5093239;28;20690;-62
2022/01/05 06:22:55;;;;;;;18.87;2.00;;;3.50;99.90;;;;;;5093065;28;20254;-62
2022/01/05 06:25:21;;;;;;;12.57;2.10;;;3.50;99.90;;;;;;5093117;28;20255;-62
2022/01/05 06:27:47;;;;;;;14.80;1.90;;;3.50;99.90;;;;;;5094595;28;20180;-62
2022/01/05 06:30:12;;;;;;;11.70;2.33;;;3.50;99.90;;;;;;5113378;28;20171;-62
2022/01/05 06:32:44;;;;;;;15.90;1.90;;;3.50;99.90;;;;;;5099937;28;20175;-61
2022/01/05 06:35:10;;;;;;;11.40;2.27;;;3.50;99.90;;;;;;5092949;28;20203;-62
2022/01/05 06:37:36;;;;;;;15.97;2.13;;;3.50;99.90;;;;;;5092652;28;20259;-61
2022/01/05 06:40:02;;;;;;;17.33;2.77;;;3.50;99.90;;;;;;5092869;28;20168;-61
2022/01/05 06:42:28;;;;;;;17.63;2.00;;;3.50;99.90;;;;;;5103740;28;20194;-61
2022/01/05 06:44:54;;;;;;;18.20;2.07;;;3.40;99.90;;;;;;5097127;28;20191;-61
2022/01/05 06:47:19;;;;;;;22.03;2.20;;;3.30;99.90;;;;;;5092708;28;20687;-61
2022/01/05 06:49:45;;;;;;;15.27;1.87;;;3.30;99.90;;;;;;5092575;28;20168;-60
2022/01/05 06:52:14;;;;;;;8.83;2.03;;;3.40;99.90;;;;;;5091044;28;20211;-61
2022/01/05 06:54:40;;;;;;;14.87;2.13;;;3.40;99.90;;;;;;5092587;28;20176;-61
2022/01/05 06:57:07;;;;;;;20.17;2.30;;;3.50;99.90;;;;;;5092411;28;20196;-61
2022/01/05 06:59:33;;;;;;;18.60;2.47;;;3.60;99.90;;;;;;5092428;28;20176;-61
2022/01/05 07:01:59;;;;;;;15.80;2.50;;;3.60;99.90;;;;;;5103791;28;20177;-61
2022/01/05 07:04:25;;;;;;;20.57;2.57;;;3.60;99.90;;;;;;5112766;28;20221;-61
2022/01/05 07:06:50;;;;;;;25.03;2.50;;;3.60;99.90;;;;;;5106305;28;20200;-61
2022/01/05 07:09:16;;;;;;;13.10;2.30;;;3.60;99.90;;;;;;5092370;28;20182;-60
2022/01/05 07:11:43;;;;;;;21.27;2.20;;;3.50;99.90;;;;;;5094096;28;20175;-60
2022/01/05 07:14:08;;;;;;;12.07;2.47;;;3.50;99.90;;;;;;5092311;28;20176;-60
2022/01/05 07:16:34;;;;;;;16.80;2.10;;;3.60;99.90;;;;;;5091721;28;20225;-61
2022/01/05 07:19:01;;;;;;;24.00;2.33;;;3.60;99.90;;;;;;5091995;28;20622;-61
2022/01/05 07:21:26;;;;;;;14.00;2.43;;;3.60;99.90;;;;;;5090608;28;20171;-62
2022/01/05 07:23:52;;;;;;;18.23;2.33;;;3.60;99.90;;;;;;5092870;28;20180;-62
2022/01/05 07:26:18;;;;;;;15.80;2.37;;;3.60;99.90;;;;;;5092026;28;20176;-61
2022/01/05 07:28:45;;;;;;;19.53;2.73;;;3.60;99.90;;;;;;5091741;28;20666;-61
2022/01/05 07:31:10;;;;;;;11.00;2.10;;;3.70;99.90;;;;;;5091658;28;20175;-61
2022/01/05 07:33:36;;;;;;;16.47;1.87;;;3.70;99.90;;;;;;5109514;28;20187;-61
2022/01/05 07:36:02;;;;;;;23.30;2.47;;;3.70;99.90;;;;;;5112073;28;20159;-60
2022/01/05 07:38:29;;;;;;;14.77;2.10;;;3.80;99.90;;;;;;5111755;28;20258;-61
2022/01/05 07:40:55;;;;;;;13.87;2.47;;;3.80;99.90;;;;;;5111950;28;20249;-61
2022/01/05 07:43:22;;;;;;;12.13;1.90;;;3.80;99.90;;;;;;5109943;28;20175;-60
2022/01/05 07:45:49;;;;;;;15.70;2.80;;;3.80;99.90;;;;;;5111439;28;20174;-60
2022/01/05 07:48:15;;;;;;;12.17;2.03;;;3.80;99.90;;;;;;5111629;28;20179;-60
2022/01/05 07:50:40;;;;;;;24.07;2.97;;;3.80;99.90;;;;;;5111662;28;20762;-60
2022/01/05 07:53:06;;;;;;;18.77;2.17;;;3.80;99.90;;;;;;5111575;28;20167;-60
2022/01/05 07:55:32;;;;;;;14.77;1.80;;;3.90;99.90;;;;;;5110136;28;20261;-60
2022/01/05 07:57:59;;;;;;;14.57;2.23;;;3.80;99.90;;;;;;5111628;28;20206;-60
2022/01/05 08:00:25;;;;;;;22.23;2.60;;;3.80;99.90;;;;;;5111648;28;20214;-62
2022/01/05 08:02:51;;;;;;;10.93;2.07;;;3.70;99.90;;;;;;5109766;28;20202;-65
2022/01/05 08:05:17;;;;;;;15.13;2.10;;;3.80;99.90;;;;;;5111394;28;20172;-64
2022/01/05 08:07:43;;;;;;;15.97;2.00;;;3.80;99.90;;;;;;5111336;28;20194;-62
2022/01/05 08:10:09;;;;;;;18.93;2.13;;;3.80;99.90;;;;;;5109968;28;20167;-61
2022/01/05 08:12:34;;;;;;;9.87;1.77;;;3.80;99.90;;;;;;5111364;28;20179;-61
2022/01/05 08:15:00;;;;;;;14.97;2.20;;;3.80;99.90;;;;;;5094989;28;20184;-61
2022/01/05 08:17:26;;;;;;;10.00;2.03;;;3.90;99.90;;;;;;5090904;28;20214;-61
2022/01/05 08:19:52;;;;;;;15.37;1.93;;;3.90;99.90;;;;;;5090847;28;20654;-62
2022/01/05 08:22:18;;;;;;;16.47;2.30;;;3.90;99.90;;;;;;5093870;28;20664;-62
2022/01/05 08:24:44;;;;;;;12.17;1.97;;;3.80;99.90;;;;;;5108198;28;20170;-62
2022/01/05 08:27:10;;;;;;;12.33;2.33;;;3.90;99.90;;;;;;5107844;28;20186;-62
2022/01/05 08:29:35;;;;;;;13.87;2.13;;;3.90;99.90;;;;;;5111143;28;20236;-62
2022/01/05 08:32:02;;;;;;;15.40;1.80;;;3.90;99.90;;;;;;5110602;28;20179;-62
2022/01/05 08:34:31;;;;;;;15.30;2.50;;;4.00;99.90;;;;;;5110870;28;20303;-63
2022/01/05 08:36:58;;;;;;;12.83;1.50;;;4.00;99.90;;;;;;5108794;28;20306;-63
2022/01/05 08:39:25;;;;;;;17.17;2.07;;;4.10;99.90;;;;;;5106421;28;20195;-63
2022/01/05 08:41:52;;;;;;;19.07;2.40;;;4.10;99.90;;;;;;5089172;28;20167;-62
2022/01/05 08:44:18;;;;;;;17.63;1.90;;;4.10;99.90;;;;;;5091549;28;20225;-62
2022/01/05 08:46:44;;;;;;;19.70;2.17;;;4.20;99.90;;;;;;5090444;28;20168;-63
2022/01/05 08:49:10;;;;;;;9.87;1.70;;;4.30;99.90;;;;;;5090535;28;20175;-63
2022/01/05 08:51:38;;;;;;;16.20;2.10;;;4.40;99.90;;;;;;5098060;28;20202;-63
2022/01/05 08:54:05;;;;;;;21.60;2.30;;;4.40;99.90;;;;;;5110843;28;20165;-62
2022/01/05 08:56:31;;;;;;;13.93;2.03;;;4.50;99.90;;;;;;5105393;28;20264;-63
2022/01/05 08:58:56;;;;;;;13.20;1.83;;;4.60;99.90;;;;;;5101608;28;20710;-61
2022/01/05 09:01:24;;;;;;;14.47;1.87;;;4.80;99.90;;;;;;5114684;28;20186;-62
2022/01/05 09:03:52;;;;;;;12.07;1.80;;;5.00;99.90;;;;;;5098439;28;20176;-61
2022/01/05 09:06:19;;;;;;;12.37;1.80;;;5.00;99.90;;;;;;5094362;28;20168;-61
2022/01/05 09:08:45;;;;;;;11.17;2.37;;;5.00;99.90;;;;;;5105774;28;20175;-73
2022/01/05 09:11:11;;;;;;;13.47;1.77;;;5.00;99.90;;;;;;5114387;28;20171;-71
2022/01/05 09:13:37;;;;;;;11.93;1.73;;;5.80;99.90;;;;;;5102920;28;20642;-72
2022/01/05 09:16:03;;;;;;;13.40;2.40;;;6.20;99.90;;;;;;5094709;28;20176;-72
2022/01/05 09:18:29;;;;;;;16.90;2.27;;;6.40;99.90;;;;;;5095154;28;20220;-68
2022/01/05 09:20:55;;;;;;;10.67;2.13;;;6.70;99.90;;;;;;5094310;28;20507;-73
2022/01/05 09:23:21;;;;;;;21.87;2.23;;;6.70;99.90;;;;;;5107064;28;20187;-73
2022/01/05 09:25:47;;;;;;;13.73;1.67;;;6.70;99.90;;;;;;5103094;28;20216;-70
2022/01/05 09:28:12;;;;;;;11.07;2.07;;;6.50;99.90;;;;;;5114657;27;20167;-60
2022/01/05 09:30:38;;;;;;;14.10;2.17;;;6.50;99.90;;;;;;5106785;28;20196;-56
2022/01/05 09:33:04;;;;;;;14.70;2.27;;;6.30;99.90;;;;;;5094056;28;20179;-60
2022/01/05 09:35:32;;;;;;;17.63;2.50;;;6.10;99.90;;;;;;5094341;28;20175;-61
2022/01/05 09:43:11;;;;;;;11.30;2.00;;;5.90;99.90;;;;;;5094258;28;20170;-55
2022/01/05 09:45:42;;;;;;;17.63;2.07;;;6.30;99.90;;;;;;5093919;28;20251;-58
2022/01/05 09:48:17;;;;;;;13.00;1.83;;;6.30;99.90;;;;;;5111092;28;20171;-60
2022/01/05 09:50:54;;;;;;;10.40;1.73;;;6.20;99.90;;;;;;5113779;28;20192;-60
2022/01/05 09:53:22;;;;;;;11.43;2.10;;;6.10;99.90;;;;;;5110398;28;20193;-60
2022/01/05 09:55:51;;;;;;;12.07;1.70;;;6.10;99.90;;;;;;5114322;28;20160;-60
2022/01/05 09:58:20;;;;;;;13.47;1.70;;;6.00;99.90;;;;;;5100904;28;20212;-60
2022/01/05 10:00:47;;;;;;;16.37;2.30;;;5.90;99.90;;;;;;5093921;28;20640;-60
2022/01/05 10:03:14;;;;;;;8.73;2.57;;;5.90;99.90;;;;;;5093578;28;20210;-60
2022/01/05 10:05:41;;;;;;;21.13;3.00;;;6.10;99.90;;;;;;5093736;28;20179;-60
2022/01/05 10:08:07;;;;;;;9.83;2.43;;;6.20;99.90;;;;;;5093807;28;20175;-60
2022/01/05 10:10:33;;;;;;;14.33;2.10;;;6.30;99.90;;;;;;5093117;28;20187;-60
2022/01/05 10:13:00;;;;;;;16.00;2.10;;;6.60;99.90;;;;;;5094211;28;20642;-60
2022/01/05 10:15:26;;;;;;;15.17;1.90;;;6.60;99.90;;;;;;5093502;28;20168;-60
2022/01/05 10:18:18;;;;;;;9.63;1.77;;;6.70;99.90;;;;;;5110962;28;20211;-61
2022/01/05 10:21:01;;;;;;;14.87;2.30;;;6.70;99.90;;;;;;5097816;28;20659;-61
2022/01/05 10:23:41;;;;;;;14.27;1.93;;;6.80;99.90;;;;;;5096633;28;20175;-61
2022/01/05 10:26:23;;;;;;;10.63;1.90;;;6.80;99.90;;;;;;5096944;28;20184;-61
2022/01/05 10:28:55;;;;;;;16.57;1.53;;;7.10;99.90;;;;;;5111695;28;20190;-61
2022/01/05 10:31:55;;;;;;;14.27;2.10;;;7.30;99.90;;;;;;5112847;28;20175;-59
2022/01/05 10:34:24;;;;;;;12.57;2.00;;;7.50;99.90;;;;;;5113665;28;20186;-61
2022/01/05 10:36:55;;;;;;;14.50;2.30;;;7.30;99.90;;;;;;5113051;28;20234;-58
2022/01/05 10:39:29;;;;;;;20.97;2.70;;;8.50;99.90;;;;;;5093892;28;20176;-58
2022/01/05 10:41:55;;;;;;;14.27;2.47;;;8.50;99.90;;;;;;5092730;28;20179;-59
2022/01/05 10:44:23;;;;;;;10.57;2.27;;;10.30;99.90;;;;;;5092665;28;20589;-59
2022/01/05 10:46:54;;;;;;;14.13;2.93;;;10.30;99.90;;;;;;5099298;28;20179;-59
2022/01/05 10:49:26;;;;;;;13.93;2.30;;;10.00;99.90;;;;;;5111783;28;20600;-57
2022/01/05 10:51:52;;;;;;;13.40;1.87;;;10.40;99.90;;;;;;5112243;28;20550;-58
2022/01/05 10:54:21;;;;;;;12.17;2.23;;;10.70;99.90;;;;;;5111313;28;20167;-56
2022/01/05 10:56:48;;;;;;;9.90;1.83;;;11.90;99.90;;;;;;5111008;28;20566;-58
2022/01/05 10:59:21;;;;;;;9.83;2.03;;;11.60;99.90;;;;;;5111035;28;20183;-59
2022/01/05 11:01:48;;;;;;;15.47;2.07;;;12.00;99.90;;;;;;5102952;28;20164;-59
2022/01/05 11:04:21;;;;;;;14.07;2.10;;;11.20;99.90;;;;;;5089342;28;20198;-59
2022/01/05 11:07:03;;;;;;;13.03;2.10;;;10.70;99.90;;;;;;5091085;28;20196;-58
2022/01/05 11:09:32;;;;;;;8.07;2.13;;;10.70;99.90;;;;;;5092227;28;20259;-59
2022/01/05 11:11:58;;;;;;;13.93;2.07;;;10.10;99.90;;;;;;5091125;28;20180;-59
2022/01/05 11:14:33;;;;;;;15.83;2.43;;;9.90;99.90;;;;;;5094329;28;20176;-59
2022/01/05 11:17:05;;;;;;;13.47;1.80;;;10.00;99.90;;;;;;5112591;28;20201;-61
2022/01/05 11:19:36;;;;;;;13.80;2.13;;;9.30;99.90;;;;;;5107111;28;20187;-60
2022/01/05 11:22:12;;;;;;;26.83;7.97;;;10.10;99.90;;;;;;5094578;28;20176;-60
2022/01/05 11:24:46;;;;;;;32.00;9.63;;;10.90;99.90;;;;;;5091935;28;20233;-60
2022/01/05 11:27:18;;;;;;;22.23;5.80;;;11.90;99.90;;;;;;5098405;28;20163;-60
2022/01/05 11:29:44;;;;;;;14.87;3.90;;;12.30;99.90;;;;;;5112087;28;20190;-58
2022/01/05 11:32:13;;;;;;;20.20;3.27;;;12.60;99.90;;;;;;5112009;28;20186;-58
2022/01/05 11:34:39;;;;;;;11.27;3.13;;;13.60;99.90;;;;;;5112257;28;20195;-59
2022/01/05 11:37:07;;;;;;;13.13;2.33;;;14.50;99.90;;;;;;5107428;28;20222;-59
2022/01/05 11:39:35;;;;;;;11.45;2.03;;;15.10;99.90;;;;;;5091441;28;20180;-59
2022/01/05 11:42:07;;;;;;;11.05;2.67;;;16.60;99.90;;;;;;5091432;28;20656;-59
2022/01/05 11:44:44;;;;;;;14.00;2.58;;;15.50;99.90;;;;;;5091705;28;20184;-59
2022/01/05 11:47:23;;;;;;;14.05;2.10;;;15.50;99.90;;;;;;5091546;28;20170;-59
2022/01/05 11:49:50;;;;;;;11.85;2.30;;;16.60;99.90;;;;;;5091209;28;20185;-59
2022/01/05 11:52:16;;;;;;;12.43;3.17;;;18.30;99.90;;;;;;5091234;28;20164;-59
2022/01/05 11:55:01;;;;;;;13.48;2.88;;;19.20;99.90;;;;;;5091384;28;20591;-59
2022/01/05 11:57:27;;;;;;;9.15;2.50;;;20.00;99.90;;;;;;5091289;28;20207;-59
2022/01/05 12:00:19;;;;;;;7.15;1.92;;;18.70;99.90;;;;;;5091285;28;20176;-59
2022/01/05 12:02:44;;;;;;;9.18;2.13;;;19.60;99.90;;;;;;5091352;28;20175;-59
2022/01/05 12:05:10;;;;;;;10.35;2.75;;;20.10;99.90;;;;;;5091390;28;20267;-59
2022/01/05 12:07:48;;;;;;;9.15;2.15;;;19.70;99.90;;;;;;5091138;28;20191;-58
2022/01/05 12:10:28;;;;;;;8.85;2.20;;;19.90;99.90;;;;;;5091056;28;20183;-58
2022/01/05 12:12:55;;;;;;;11.32;2.28;;;20.40;99.90;;;;;;5091030;28;20191;-58
2022/01/05 12:15:44;;;;;;;17.20;2.75;;;20.20;99.90;;;;;;5091221;28;20596;-58
2022/01/05 12:18:21;;;;;;;9.82;2.38;;;20.90;99.90;;;;;;5090982;28;20223;-59
2022/01/05 12:20:47;;;;;;;13.90;3.00;;;20.90;99.90;;;;;;5091049;28;20172;-59
2022/01/05 12:23:25;;;;;;;14.95;2.70;;;20.80;99.90;;;;;;5091031;28;20199;-59
2022/01/05 12:26:07;;;;;;;13.48;2.50;;;21.60;99.90;;;;;;5090998;28;20164;-58
2022/01/05 12:28:38;;;;;;;8.38;2.40;;;21.30;99.90;;;;;;5090922;28;20175;-59
2022/01/05 12:31:06;;;;;;;12.85;2.50;;;19.70;99.90;;;;;;5090703;28;20199;-58
2022/01/05 12:34:01;;;;;;;13.25;2.30;;;19.50;99.90;;;;;;5090643;28;20642;-59
2022/01/05 12:36:38;;;;;;;10.73;2.38;;;19.30;99.90;;;;;;5077285;28;20172;-58
2022/01/05 12:39:08;;;;;;;14.82;2.63;;;20.40;99.90;;;;;;5090804;28;20187;-58
2022/01/05 12:41:37;;;;;;;12.10;2.17;;;20.50;99.90;;;;;;5090780;28;20171;-58
2022/01/05 12:44:06;;;;;;;12.32;2.72;;;20.50;99.90;;;;;;5090615;28;20180;-58
2022/01/05 12:46:37;;;;;;;13.80;2.50;;;21.30;99.90;;;;;;5090634;28;20630;-58
2022/01/05 12:49:09;;;;;;;13.30;1.95;;;20.40;99.90;;;;;;5090782;28;20175;-59
2022/01/05 12:51:44;;;;;;;7.00;2.28;;;20.80;99.90;;;;;;5090614;28;20179;-59
2022/01/05 12:54:26;;;;;;;9.02;2.20;;;19.80;99.90;;;;;;5090543;28;20187;-58
2022/01/05 12:57:02;;;;;;;13.02;2.45;;;19.80;99.90;;;;;;5090636;28;20297;-59